createdAt,value
2024-01-20T00:02:45.679Z,0
2024-01-20T00:07:45.724Z,0
2024-01-20T00:12:45.672Z,0
2024-01-20T00:17:45.826Z,0
2024-01-20T00:22:45.708Z,0
2024-01-20T00:27:45.733Z,0
2024-01-20T00:32:45.730Z,0
2024-01-20T00:37:45.729Z,0
2024-01-20T00:42:45.694Z,0
2024-01-20T00:47:45.782Z,0
2024-01-20T00:52:45.912Z,0
2024-01-20T00:57:45.717Z,0
2024-01-20T01:02:45.794Z,0
2024-01-20T01:07:45.701Z,0
2024-01-20T01:12:45.704Z,0
2024-01-20T01:17:45.742Z,0
2024-01-20T01:22:45.659Z,0
2024-01-20T01:27:45.730Z,0
2024-01-20T01:32:45.716Z,0
2024-01-20T01:37:45.746Z,0
2024-01-20T01:42:45.687Z,0
2024-01-20T01:47:45.749Z,0
2024-01-20T01:52:45.690Z,0
2024-01-20T01:57:45.710Z,0
2024-01-20T02:02:45.809Z,0
2024-01-20T02:07:45.732Z,0
2024-01-20T02:12:45.708Z,0
2024-01-20T02:17:45.810Z,0
2024-01-20T02:22:45.697Z,0
2024-01-20T02:27:45.702Z,0
2024-01-20T02:32:45.764Z,0
2024-01-20T02:37:45.956Z,0
2024-01-20T02:42:45.818Z,0
2024-01-20T02:47:45.761Z,0
2024-01-20T02:52:45.715Z,0
2024-01-20T02:57:45.694Z,0
2024-01-20T03:02:45.678Z,0
2024-01-20T03:07:45.968Z,0
2024-01-20T03:12:45.733Z,0
2024-01-20T03:17:45.753Z,0
2024-01-20T03:22:45.712Z,0
2024-01-20T03:27:46.120Z,0
2024-01-20T03:32:45.783Z,0
2024-01-20T03:37:45.732Z,0
2024-01-20T03:42:45.700Z,0
2024-01-20T03:47:45.718Z,0
2024-01-20T03:52:46.913Z,0
2024-01-20T03:57:45.706Z,0
2024-01-20T04:02:45.730Z,0
2024-01-20T04:07:45.704Z,0
2024-01-20T04:12:46.252Z,0
2024-01-20T04:17:45.728Z,0
2024-01-20T04:22:45.684Z,0
2024-01-20T04:27:45.769Z,0
2024-01-20T04:32:45.828Z,0
2024-01-20T04:37:45.912Z,0
2024-01-20T04:42:45.734Z,0
2024-01-20T04:47:45.785Z,0
2024-01-20T04:52:45.709Z,0
2024-01-20T04:57:45.744Z,0
2024-01-20T05:02:45.727Z,0
2024-01-20T05:07:45.977Z,0
2024-01-20T05:12:45.686Z,0
2024-01-20T05:17:45.787Z,0
2024-01-20T05:22:45.734Z,0
2024-01-20T05:27:45.732Z,0
2024-01-20T05:32:47.200Z,0
2024-01-20T05:37:45.713Z,0
2024-01-20T05:42:46.084Z,0
2024-01-20T05:47:45.742Z,0
2024-01-20T05:52:45.674Z,0
2024-01-20T05:57:45.714Z,0
2024-01-20T06:02:45.796Z,0
2024-01-20T06:07:45.707Z,0
2024-01-20T06:12:45.738Z,0
2024-01-20T06:17:47.230Z,0
2024-01-20T06:22:45.762Z,0
2024-01-20T06:27:45.710Z,0
2024-01-20T06:32:45.801Z,0
2024-01-20T06:37:45.756Z,0
2024-01-20T06:42:45.742Z,256
2024-01-20T06:47:45.779Z,260
2024-01-20T06:52:45.755Z,260
2024-01-20T06:57:45.834Z,262
2024-01-20T07:02:45.768Z,266
2024-01-20T07:07:45.718Z,271
2024-01-20T07:12:45.761Z,280
2024-01-20T07:17:45.822Z,286
2024-01-20T07:22:45.731Z,310
2024-01-20T07:27:45.744Z,307
2024-01-20T07:32:45.776Z,319
2024-01-20T07:37:45.777Z,351
2024-01-20T07:42:45.823Z,423
2024-01-20T07:47:45.748Z,386
2024-01-20T07:52:45.721Z,413
2024-01-20T07:57:45.696Z,475
2024-01-20T08:02:45.762Z,670
2024-01-20T08:07:45.701Z,631
2024-01-20T08:12:45.740Z,648
2024-01-20T08:17:45.742Z,645
2024-01-20T08:22:45.710Z,760
2024-01-20T08:27:45.697Z,925
2024-01-20T08:32:45.869Z,820
2024-01-20T08:37:45.715Z,755
2024-01-20T08:42:45.988Z,909
2024-01-20T08:47:45.738Z,1263
2024-01-20T08:52:46.047Z,989
2024-01-20T08:57:45.729Z,912
2024-01-20T09:02:45.809Z,936
2024-01-20T09:07:45.749Z,1256
2024-01-20T09:12:45.793Z,4634
2024-01-20T09:17:45.732Z,4143
2024-01-20T09:22:45.741Z,6456
2024-01-20T09:27:45.726Z,4376
2024-01-20T09:32:45.743Z,1002
2024-01-20T09:37:45.745Z,805
2024-01-20T09:42:45.746Z,795
2024-01-20T09:47:45.740Z,764
2024-01-20T09:52:45.704Z,741
2024-01-20T09:57:46.007Z,711
2024-01-20T10:02:45.744Z,673
2024-01-20T10:07:45.715Z,645
2024-01-20T10:12:45.723Z,632
2024-01-20T10:17:45.690Z,610
2024-01-20T10:22:45.690Z,594
2024-01-20T10:27:45.746Z,581
2024-01-20T10:32:47.904Z,561
2024-01-20T10:37:45.757Z,545
2024-01-20T10:42:45.732Z,532
2024-01-20T10:47:45.834Z,531
2024-01-20T10:52:45.731Z,524
2024-01-20T10:57:45.702Z,514
2024-01-20T11:02:45.758Z,502
2024-01-20T11:07:45.745Z,491
2024-01-20T11:12:45.762Z,471
2024-01-20T11:17:45.758Z,482
2024-01-20T11:22:45.774Z,480
2024-01-20T11:27:45.761Z,478
2024-01-20T11:32:45.873Z,467
2024-01-20T11:37:45.762Z,472
2024-01-20T11:42:45.804Z,465
2024-01-20T11:47:45.768Z,457
2024-01-20T11:52:45.756Z,449
2024-01-20T11:57:45.782Z,449
2024-01-20T12:02:45.770Z,448
2024-01-20T12:07:45.766Z,452
2024-01-20T12:12:45.728Z,465
2024-01-20T12:17:45.849Z,497
2024-01-20T12:22:45.789Z,534
2024-01-20T12:27:45.779Z,702
2024-01-20T12:32:45.805Z,1824
2024-01-20T12:37:45.738Z,597
2024-01-20T12:42:45.766Z,584
2024-01-20T12:47:45.758Z,575
2024-01-20T12:52:45.777Z,585
2024-01-20T12:57:45.780Z,584
2024-01-20T13:02:45.777Z,581
2024-01-20T13:07:45.789Z,572
2024-01-20T13:12:45.759Z,565
2024-01-20T13:17:45.813Z,560
2024-01-20T13:22:45.764Z,547
2024-01-20T13:27:45.830Z,529
2024-01-20T13:32:45.739Z,517
2024-01-20T13:37:45.793Z,496
2024-01-20T13:42:45.869Z,486
2024-01-20T13:47:45.823Z,465
2024-01-20T13:52:45.769Z,448
2024-01-20T13:57:45.786Z,430
2024-01-20T14:02:45.882Z,407
2024-01-20T14:07:45.799Z,400
2024-01-20T14:12:45.857Z,396
2024-01-20T14:17:45.874Z,394
2024-01-20T14:22:45.770Z,384
2024-01-20T14:27:45.755Z,344
2024-01-20T14:32:45.795Z,330
2024-01-20T14:37:45.765Z,324
2024-01-20T14:42:45.824Z,323
2024-01-20T14:47:45.818Z,356
2024-01-20T14:52:45.779Z,404
2024-01-20T14:57:45.852Z,416
2024-01-20T15:02:45.769Z,403
2024-01-20T15:07:45.762Z,359
2024-01-20T15:12:45.810Z,319
2024-01-20T15:17:45.790Z,304
2024-01-20T15:22:45.804Z,295
2024-01-20T15:27:45.838Z,289
2024-01-20T15:32:45.808Z,283
2024-01-20T15:37:45.765Z,279
2024-01-20T15:42:45.833Z,275
2024-01-20T15:47:45.858Z,270
2024-01-20T15:52:45.798Z,264
2024-01-20T15:57:45.836Z,261
2024-01-20T16:02:45.839Z,258
2024-01-20T16:07:45.826Z,256
2024-01-20T16:12:45.845Z,0
2024-01-20T16:17:45.858Z,0
2024-01-20T16:22:46.040Z,0
2024-01-20T16:27:45.900Z,0
2024-01-20T16:32:45.872Z,0
2024-01-20T16:37:45.816Z,0
2024-01-20T16:42:45.864Z,0
2024-01-20T16:47:45.874Z,0
2024-01-20T16:52:45.832Z,0
2024-01-20T16:57:45.884Z,0
2024-01-20T17:02:45.813Z,0
2024-01-20T17:07:46.474Z,0
2024-01-20T17:12:45.830Z,0
2024-01-20T17:17:45.837Z,0
2024-01-20T17:22:45.819Z,0
2024-01-20T17:27:45.869Z,0
2024-01-20T17:32:45.814Z,0
2024-01-20T17:37:45.813Z,0
2024-01-20T17:42:45.861Z,0
2024-01-20T17:47:45.844Z,0
2024-01-20T17:52:45.865Z,0
2024-01-20T17:57:45.923Z,0
2024-01-20T18:02:45.824Z,0
2024-01-20T18:07:45.813Z,0
2024-01-20T18:12:45.891Z,0
2024-01-20T18:17:45.846Z,0
2024-01-20T18:22:45.845Z,0
2024-01-20T18:27:45.808Z,0
2024-01-20T18:32:45.769Z,0
2024-01-20T18:37:45.849Z,0
2024-01-20T18:42:45.867Z,0
2024-01-20T18:47:45.896Z,0
2024-01-20T18:52:45.798Z,0
2024-01-20T18:57:45.870Z,0
2024-01-20T19:02:45.824Z,0
2024-01-20T19:07:45.854Z,0
2024-01-20T19:12:45.792Z,0
2024-01-20T19:17:45.889Z,0
2024-01-20T19:22:45.794Z,0
2024-01-20T19:27:45.908Z,0
2024-01-20T19:32:45.848Z,0
2024-01-20T19:37:45.825Z,0
2024-01-20T19:42:45.896Z,0
2024-01-20T19:47:45.840Z,0
2024-01-20T19:52:45.827Z,0
2024-01-20T19:57:45.856Z,0
2024-01-20T20:02:45.847Z,0
2024-01-20T20:07:45.784Z,0
2024-01-20T20:12:45.903Z,0
2024-01-20T20:17:47.171Z,0
2024-01-20T20:22:45.823Z,0
2024-01-20T20:27:45.881Z,0
2024-01-20T20:32:45.871Z,0
2024-01-20T20:37:45.807Z,0
2024-01-20T20:42:45.850Z,0
2024-01-20T20:47:45.903Z,0
2024-01-20T20:52:46.570Z,0
2024-01-20T20:57:45.885Z,0
2024-01-20T21:02:46.079Z,0
2024-01-20T21:07:45.841Z,0
2024-01-20T21:12:46.063Z,0
2024-01-20T21:17:45.901Z,0
2024-01-20T21:22:45.849Z,0
2024-01-20T21:27:45.863Z,0
2024-01-20T21:32:45.867Z,0
2024-01-20T21:37:45.835Z,0
2024-01-20T21:42:45.865Z,0
2024-01-20T21:47:45.948Z,0
2024-01-20T21:52:45.838Z,0
2024-01-20T21:57:45.909Z,0
2024-01-20T22:02:45.967Z,0
2024-01-20T22:07:46.984Z,0
2024-01-20T22:12:45.871Z,0
2024-01-20T22:17:45.834Z,0
2024-01-20T22:22:45.838Z,0
2024-01-20T22:27:45.995Z,0
2024-01-20T22:32:45.848Z,0
2024-01-20T22:37:45.846Z,0
2024-01-20T22:42:45.883Z,0
2024-01-20T22:47:45.997Z,0
2024-01-20T22:52:45.848Z,0
2024-01-20T22:57:45.903Z,0
2024-01-20T23:02:45.831Z,0
2024-01-20T23:07:45.848Z,0
2024-01-20T23:12:45.843Z,0
2024-01-20T23:17:45.827Z,0
2024-01-20T23:22:45.846Z,0
2024-01-20T23:27:45.893Z,0
2024-01-20T23:32:45.844Z,0
2024-01-20T23:37:45.859Z,0
2024-01-20T23:42:45.928Z,0
2024-01-20T23:47:45.875Z,0
2024-01-20T23:52:45.859Z,0
2024-01-20T23:57:45.886Z,0
